Time,TemperatureF,DewpointF,PressureIn,WindDirection,WindDirectionDegrees,WindSpeedMPH,WindSpeedGustMPH,Humidity,HourlyPrecipIn,Conditions,Clouds,dailyrainin,SoftwareType,DateUTC
2013-09-20 00:12:00,66.0,54.7,29.86,NW,315,0.0,-999.0,67,-99.99,,,0.00,Acu-Link.com,2013-09-20 07:12:00,
2013-09-20 00:27:00,64.9,55.7,29.86,NW,315,0.0,-999.0,72,-99.99,,,0.00,Acu-Link.com,2013-09-20 07:27:00,
2013-09-20 00:43:00,63.7,54.9,29.85,NW,315,0.0,-999.0,73,-99.99,,,0.00,Acu-Link.com,2013-09-20 07:43:00,
2013-09-20 00:58:00,63.5,53.9,29.86,NW,315,0.0,-999.0,71,-99.99,,,0.00,Acu-Link.com,2013-09-20 07:58:00,
2013-09-20 01:13:00,63.7,54.5,29.85,NW,315,0.0,-999.0,72,-99.99,,,0.00,Acu-Link.com,2013-09-20 08:13:00,
2013-09-20 01:30:00,63.7,54.9,29.86,NW,315,0.0,-999.0,73,-99.99,,,0.00,Acu-Link.com,2013-09-20 08:30:00,
2013-09-20 01:45:00,63.7,54.5,29.85,NW,315,0.0,-999.0,72,-99.99,,,0.00,Acu-Link.com,2013-09-20 08:45:00,
2013-09-20 02:00:00,63.1,54.3,29.85,NW,315,0.0,-999.0,73,-99.99,,,0.00,Acu-Link.com,2013-09-20 09:00:00,
2013-09-20 02:15:00,63.7,54.9,29.85,NW,315,0.0,-999.0,73,-99.99,,,0.00,Acu-Link.com,2013-09-20 09:15:00,
2013-09-20 02:30:00,62.6,54.2,29.86,NW,315,0.0,-999.0,74,-99.99,,,0.00,Acu-Link.com,2013-09-20 09:30:00,
2013-09-20 02:45:00,61.7,54.4,29.85,NW,315,0.0,-999.0,77,-99.99,,,0.00,Acu-Link.com,2013-09-20 09:45:00,
2013-09-20 03:01:00,60.8,54.9,29.85,NW,315,0.0,-999.0,81,-99.99,,,0.00,Acu-Link.com,2013-09-20 10:01:00,
2013-09-20 03:32:00,60.6,54.7,29.85,NW,315,0.0,-999.0,81,-99.99,,,0.00,Acu-Link.com,2013-09-20 10:32:00,
2013-09-20 03:47:00,61.3,55.1,29.86,NW,315,0.0,-999.0,80,-99.99,,,0.00,Acu-Link.com,2013-09-20 10:47:00,
2013-09-20 04:02:00,60.6,55.1,29.86,NW,315,0.0,-999.0,82,-99.99,,,0.00,Acu-Link.com,2013-09-20 11:02:00,
2013-09-20 04:17:00,59.4,53.6,29.86,NW,315,0.0,-999.0,81,-99.99,,,0.00,Acu-Link.com,2013-09-20 11:17:00,
2013-09-20 04:33:00,61.0,54.8,29.85,NW,315,0.0,-999.0,80,-99.99,,,0.00,Acu-Link.com,2013-09-20 11:33:00,
2013-09-20 04:48:00,59.7,54.2,29.85,NW,315,0.0,-999.0,82,-99.99,,,0.00,Acu-Link.com,2013-09-20 11:48:00,
2013-09-20 05:03:00,59.7,53.9,29.85,NW,315,0.0,-999.0,81,-99.99,,,0.00,Acu-Link.com,2013-09-20 12:03:00,
2013-09-20 05:19:00,58.6,53.5,29.85,NW,315,0.0,-999.0,83,-99.99,,,0.00,Acu-Link.com,2013-09-20 12:19:00,
2013-09-20 05:34:00,57.9,53.1,29.85,NW,315,0.0,-999.0,84,-99.99,,,0.00,Acu-Link.com,2013-09-20 12:34:00,
2013-09-20 05:50:00,59.2,53.7,29.86,NW,315,0.0,-999.0,82,-99.99,,,0.00,Acu-Link.com,2013-09-20 12:50:00,
2013-09-20 06:05:00,57.6,53.1,29.86,NW,315,0.0,-999.0,85,-99.99,,,0.00,Acu-Link.com,2013-09-20 13:05:00,
2013-09-20 06:20:00,57.2,52.4,29.86,NW,315,0.0,-999.0,84,-99.99,,,0.00,Acu-Link.com,2013-09-20 13:20:00,
2013-09-20 06:36:00,56.5,52.4,29.86,NW,315,0.0,-999.0,86,-99.99,,,0.00,Acu-Link.com,2013-09-20 13:36:00,
2013-09-20 06:51:00,56.3,52.8,29.86,NW,315,0.0,-999.0,88,-99.99,,,0.00,Acu-Link.com,2013-09-20 13:51:00,
2013-09-20 07:06:00,57.9,53.7,29.86,NNE,22,1.7,-999.0,86,-99.99,,,0.00,Acu-Link.com,2013-09-20 14:06:00,
2013-09-20 07:21:00,58.6,53.8,29.87,NNE,22,1.7,-999.0,84,-99.99,,,0.00,Acu-Link.com,2013-09-20 14:21:00,
2013-09-20 07:36:00,60.3,54.4,29.88,NNE,22,1.1,-999.0,81,-99.99,,,0.00,Acu-Link.com,2013-09-20 14:36:00,
2013-09-20 07:52:00,64.2,55.0,29.88,NNE,22,0.0,-999.0,72,-99.99,,,0.00,Acu-Link.com,2013-09-20 14:52:00,
2013-09-20 08:07:00,66.4,55.1,29.89,NNE,22,2.2,-999.0,67,-99.99,,,0.00,Acu-Link.com,2013-09-20 15:07:00,
2013-09-20 08:22:00,70.0,55.5,29.88,WNW,292,1.1,-999.0,60,-99.99,,,0.00,Acu-Link.com,2013-09-20 15:22:00,
2013-09-20 08:37:00,68.7,55.1,29.88,WNW,292,1.1,-999.0,62,-99.99,,,0.00,Acu-Link.com,2013-09-20 15:37:00,
2013-09-20 08:53:00,70.0,55.0,29.88,WNW,292,0.0,-999.0,59,-99.99,,,0.00,Acu-Link.com,2013-09-20 15:53:00,
2013-09-20 09:08:00,76.8,55.6,29.88,SSE,157,1.7,-999.0,48,-99.99,,,0.00,Acu-Link.com,2013-09-20 16:08:00,
2013-09-20 09:23:00,75.0,54.5,29.88,SSE,157,0.0,-999.0,49,-99.99,,,0.00,Acu-Link.com,2013-09-20 16:23:00,
2013-09-20 09:38:00,78.4,54.0,29.88,SSE,157,1.7,-999.0,43,-99.99,,,0.00,Acu-Link.com,2013-09-20 16:38:00,
2013-09-20 09:54:00,76.8,52.6,29.88,SSE,157,1.7,-999.0,43,-99.99,,,0.00,Acu-Link.com,2013-09-20 16:54:00,
2013-09-20 10:09:00,78.1,53.1,29.87,North,0,1.7,-999.0,42,-99.99,,,0.00,Acu-Link.com,2013-09-20 17:09:00,
2013-09-20 10:24:00,81.0,53.0,29.87,NE,45,2.2,-999.0,38,-99.99,,,0.00,Acu-Link.com,2013-09-20 17:24:00,
2013-09-20 10:39:00,80.1,53.6,29.87,NW,315,1.1,-999.0,40,-99.99,,,0.00,Acu-Link.com,2013-09-20 17:39:00,
2013-09-20 10:54:00,81.7,53.6,29.87,NNW,337,3.7,-999.0,38,-99.99,,,0.00,Acu-Link.com,2013-09-20 17:54:00,
2013-09-20 11:10:00,82.9,53.9,29.87,NNE,22,3.7,-999.0,37,-99.99,,,0.00,Acu-Link.com,2013-09-20 18:10:00,
2013-09-20 11:25:00,82.9,54.7,29.86,West,270,0.0,-999.0,38,-99.99,,,0.00,Acu-Link.com,2013-09-20 18:25:00,
2013-09-20 11:41:00,84.4,52.9,29.86,SW,225,0.0,-999.0,34,-99.99,,,0.00,Acu-Link.com,2013-09-20 18:41:00,
2013-09-20 11:56:00,85.6,53.2,29.86,WSW,247,1.1,-999.0,33,-99.99,,,0.00,Acu-Link.com,2013-09-20 18:56:00,
2013-09-20 12:11:00,86.7,54.1,29.85,WNW,292,3.2,-999.0,33,-99.99,,,0.00,Acu-Link.com,2013-09-20 19:11:00,
2013-09-20 12:26:00,89.4,53.8,29.85,ESE,112,2.2,-999.0,30,-99.99,,,0.00,Acu-Link.com,2013-09-20 19:26:00,
2013-09-20 12:41:00,90.1,54.4,29.84,ENE,67,1.7,-999.0,30,-99.99,,,0.00,Acu-Link.com,2013-09-20 19:41:00,
2013-09-20 12:56:00,90.9,55.1,29.84,NNE,22,1.7,-999.0,30,-99.99,,,0.00,Acu-Link.com,2013-09-20 19:56:00,
2013-09-20 13:12:00,89.2,52.7,29.84,NE,45,1.1,-999.0,29,-99.99,,,0.00,Acu-Link.com,2013-09-20 20:12:00,
2013-09-20 13:27:00,90.0,53.4,29.83,NNW,337,2.7,-999.0,29,-99.99,,,0.00,Acu-Link.com,2013-09-20 20:27:00,
2013-09-20 13:42:00,92.8,53.9,29.82,NNW,337,3.2,-999.0,27,-99.99,,,0.00,Acu-Link.com,2013-09-20 20:42:00,
2013-09-20 13:57:00,91.6,51.8,29.80,NNW,337,1.7,-999.0,26,-99.99,,,0.00,Acu-Link.com,2013-09-20 20:57:00,
2013-09-20 14:13:00,91.2,52.5,29.80,SE,135,3.2,-999.0,27,-99.99,,,0.00,Acu-Link.com,2013-09-20 21:13:00,
2013-09-20 14:28:00,92.7,52.7,29.80,East,90,2.2,-999.0,26,-99.99,,,0.00,Acu-Link.com,2013-09-20 21:28:00,
2013-09-20 14:43:00,93.2,53.2,29.79,North,0,5.3,-999.0,26,-99.99,,,0.00,Acu-Link.com,2013-09-20 21:43:00,
2013-09-20 14:59:00,92.5,52.6,29.79,South,180,3.7,-999.0,26,-99.99,,,0.00,Acu-Link.com,2013-09-20 21:59:00,
2013-09-20 15:14:00,92.3,52.4,29.79,SW,225,2.7,-999.0,26,-99.99,,,0.00,Acu-Link.com,2013-09-20 22:14:00,
2013-09-20 15:29:00,92.7,52.7,29.78,West,270,5.8,-999.0,26,-99.99,,,0.00,Acu-Link.com,2013-09-20 22:29:00,
2013-09-20 15:44:00,92.8,51.8,29.78,NNW,337,6.8,-999.0,25,-99.99,,,0.00,Acu-Link.com,2013-09-20 22:44:00,
2013-09-20 16:00:00,92.5,51.5,29.78,NNW,337,4.7,-999.0,25,-99.99,,,0.00,Acu-Link.com,2013-09-20 23:00:00,
2013-09-20 16:15:00,91.8,50.9,29.77,West,270,4.7,-999.0,25,-99.99,,,0.00,Acu-Link.com,2013-09-20 23:15:00,
2013-09-20 16:30:00,91.8,50.9,29.76,SW,225,4.7,-999.0,25,-99.99,,,0.00,Acu-Link.com,2013-09-20 23:30:00,
2013-09-20 16:45:00,91.4,50.6,29.77,West,270,4.2,-999.0,25,-99.99,,,0.00,Acu-Link.com,2013-09-20 23:45:00,
2013-09-20 17:00:00,91.0,49.2,29.77,WNW,292,4.7,-999.0,24,-99.99,,,0.00,Acu-Link.com,2013-09-21 00:00:00,
2013-09-20 17:16:00,90.9,49.1,29.77,WNW,292,6.3,-999.0,24,-99.99,,,0.00,Acu-Link.com,2013-09-21 00:16:00,
2013-09-20 17:31:00,90.1,48.4,29.77,SSW,202,5.8,-999.0,24,-99.99,,,0.00,Acu-Link.com,2013-09-21 00:31:00,
2013-09-20 17:46:00,88.9,47.4,29.77,NNW,337,3.7,-999.0,24,-99.99,,,0.00,Acu-Link.com,2013-09-21 00:46:00,
2013-09-20 18:01:00,89.1,48.7,29.77,West,270,4.2,-999.0,25,-99.99,,,0.00,Acu-Link.com,2013-09-21 01:01:00,
2013-09-20 18:17:00,87.4,47.2,29.77,NW,315,3.2,-999.0,25,-99.99,,,0.00,Acu-Link.com,2013-09-21 01:17:00,
2013-09-20 18:32:00,84.7,48.9,29.78,WSW,247,4.2,-999.0,29,-99.99,,,0.00,Acu-Link.com,2013-09-21 01:32:00,
2013-09-20 18:47:00,82.8,48.2,29.80,WSW,247,10.4,-999.0,30,-99.99,,,0.00,Acu-Link.com,2013-09-21 01:47:00,
2013-09-20 19:18:00,80.2,50.8,29.81,NNW,337,4.2,-999.0,36,-99.99,,,0.00,Acu-Link.com,2013-09-21 02:18:00,
2013-09-20 19:33:00,79.2,51.4,29.82,West,270,4.7,-999.0,38,-99.99,,,0.00,Acu-Link.com,2013-09-21 02:33:00,
2013-09-20 19:48:00,78.1,51.8,29.82,SSE,157,4.2,-999.0,40,-99.99,,,0.00,Acu-Link.com,2013-09-21 02:48:00,
2013-09-20 20:03:00,77.2,52.3,29.83,NNW,337,4.2,-999.0,42,-99.99,,,0.00,Acu-Link.com,2013-09-21 03:03:00,
2013-09-20 20:19:00,76.3,52.1,29.84,North,0,4.7,-999.0,43,-99.99,,,0.00,Acu-Link.com,2013-09-21 03:19:00,
2013-09-20 20:34:00,75.7,52.2,29.85,WNW,292,4.2,-999.0,44,-99.99,,,0.00,Acu-Link.com,2013-09-21 03:34:00,
2013-09-20 20:49:00,75.4,53.8,29.86,ENE,67,7.3,-999.0,47,-99.99,,,0.00,Acu-Link.com,2013-09-21 03:49:00,
2013-09-20 21:04:00,74.5,54.6,29.87,WNW,292,5.8,-999.0,50,-99.99,,,0.00,Acu-Link.com,2013-09-21 04:04:00,
2013-09-20 21:19:00,73.8,56.1,29.88,West,270,4.2,-999.0,54,-99.99,,,0.00,Acu-Link.com,2013-09-21 04:19:00,
2013-09-20 21:34:00,73.0,56.4,29.88,SW,225,4.2,-999.0,56,-99.99,,,0.00,Acu-Link.com,2013-09-21 04:34:00,
2013-09-20 21:50:00,72.3,56.7,29.88,NNW,337,5.3,-999.0,58,-99.99,,,0.00,Acu-Link.com,2013-09-21 04:50:00,
2013-09-20 22:05:00,71.8,56.7,29.89,West,270,4.7,-999.0,59,-99.99,,,0.00,Acu-Link.com,2013-09-21 05:05:00,
2013-09-20 22:20:00,71.1,56.5,29.89,NW,315,6.8,-999.0,60,-99.99,,,0.00,Acu-Link.com,2013-09-21 05:20:00,
2013-09-20 22:35:00,70.5,56.8,29.90,WNW,292,4.7,-999.0,62,-99.99,,,0.00,Acu-Link.com,2013-09-21 05:35:00,
2013-09-20 22:51:00,70.0,56.8,29.91,NNE,22,3.2,-999.0,63,-99.99,,,0.00,Acu-Link.com,2013-09-21 05:51:00,
2013-09-20 23:06:00,69.8,57.1,29.92,West,270,7.8,-999.0,64,-99.99,,,0.00,Acu-Link.com,2013-09-21 06:06:00,
2013-09-20 23:21:00,69.3,57.0,29.93,SW,225,3.2,-999.0,65,-99.99,,,0.00,Acu-Link.com,2013-09-21 06:21:00,
2013-09-20 23:36:00,68.7,57.3,29.93,NW,315,5.3,-999.0,67,-99.99,,,0.00,Acu-Link.com,2013-09-21 06:36:00,
2013-09-20 23:51:00,68.0,57.4,29.92,North,0,4.2,-999.0,69,-99.99,,,0.00,Acu-Link.com,2013-09-21 06:51:00,